sensor_id;sensor_type;location;lat;lon;timestamp;temperature;humidity
37478;DHT22;23334;54.316;10.182;2023-03-14T00:00:10;9.90;99.90
37478;DHT22;23334;54.316;10.182;2023-03-14T00:02:43;9.80;99.90
37478;DHT22;23334;54.316;10.182;2023-03-14T00:05:22;9.90;99.90
37478;DHT22;23334;54.316;10.182;2023-03-14T00:08:07;9.70;99.90
37478;DHT22;23334;54.316;10.182;2023-03-14T00:10:41;9.70;99.90
37478;DHT22;23334;54.316;10.182;2023-03-14T00:13:20;9.80;99.90
37478;DHT22;23334;54.316;10.182;2023-03-14T00:16:06;9.50;99.90
37478;DHT22;23334;54.316;10.182;2023-03-14T00:18:55;9.70;99.90
37478;DHT22;23334;54.316;10.182;2023-03-14T00:21:36;9.40;99.90
37478;DHT22;23334;54.316;10.182;2023-03-14T00:24:17;9.50;99.90
37478;DHT22;23334;54.316;10.182;2023-03-14T00:29:39;9.50;99.90
37478;DHT22;23334;54.316;10.182;2023-03-14T00:32:20;9.40;99.90
37478;DHT22;23334;54.316;10.182;2023-03-14T00:34:48;9.50;99.90
37478;DHT22;23334;54.316;10.182;2023-03-14T00:37:18;9.70;99.90
37478;DHT22;23334;54.316;10.182;2023-03-14T00:39:54;9.60;99.90
37478;DHT22;23334;54.316;10.182;2023-03-14T00:42:32;9.70;99.90
37478;DHT22;23334;54.316;10.182;2023-03-14T00:45:01;9.70;99.90
37478;DHT22;23334;54.316;10.182;2023-03-14T00:47:32;9.60;99.90
37478;DHT22;23334;54.316;10.182;2023-03-14T00:53:00;9.60;99.90
37478;DHT22;23334;54.316;10.182;2023-03-14T00:56:09;9.70;99.90
37478;DHT22;23334;54.316;10.182;2023-03-14T01:01:28;9.70;99.90
37478;DHT22;23334;54.316;10.182;2023-03-14T01:04:11;9.80;99.90
37478;DHT22;23334;54.316;10.182;2023-03-14T01:06:53;10.20;99.90
37478;DHT22;23334;54.316;10.182;2023-03-14T01:10:19;9.60;99.90
37478;DHT22;23334;54.316;10.182;2023-03-14T01:12:50;9.60;99.90
37478;DHT22;23334;54.316;10.182;2023-03-14T01:15:16;9.50;99.90
37478;DHT22;23334;54.316;10.182;2023-03-14T01:17:43;9.30;99.90
37478;DHT22;23334;54.316;10.182;2023-03-14T01:20:13;9.40;99.90
37478;DHT22;23334;54.316;10.182;2023-03-14T01:22:44;9.40;99.90
37478;DHT22;23334;54.316;10.182;2023-03-14T01:25:50;9.40;99.90
37478;DHT22;23334;54.316;10.182;2023-03-14T01:31:50;9.30;99.90
37478;DHT22;23334;54.316;10.182;2023-03-14T01:34:39;9.40;99.90
37478;DHT22;23334;54.316;10.182;2023-03-14T01:37:39;9.40;99.90
37478;DHT22;23334;54.316;10.182;2023-03-14T01:40:31;9.40;99.90
37478;DHT22;23334;54.316;10.182;2023-03-14T01:43:39;10.40;99.90
37478;DHT22;23334;54.316;10.182;2023-03-14T01:46:48;9.50;99.90
37478;DHT22;23334;54.316;10.182;2023-03-14T01:49:38;9.70;99.90
37478;DHT22;23334;54.316;10.182;2023-03-14T01:53:01;9.80;99.90
37478;DHT22;23334;54.316;10.182;2023-03-14T01:55:28;9.70;99.90
37478;DHT22;23334;54.316;10.182;2023-03-14T01:58:27;9.90;99.90
37478;DHT22;23334;54.316;10.182;2023-03-14T02:00:56;9.80;99.90
37478;DHT22;23334;54.316;10.182;2023-03-14T02:03:47;10.10;99.90
37478;DHT22;23334;54.316;10.182;2023-03-14T02:06:39;10.10;99.90
37478;DHT22;23334;54.316;10.182;2023-03-14T02:09:12;9.80;99.90
37478;DHT22;23334;54.316;10.182;2023-03-14T02:14:12;9.80;99.90
37478;DHT22;23334;54.316;10.182;2023-03-14T02:17:19;9.80;99.90
37478;DHT22;23334;54.316;10.182;2023-03-14T02:20:12;9.70;99.90
37478;DHT22;23334;54.316;10.182;2023-03-14T02:22:50;9.90;99.90
37478;DHT22;23334;54.316;10.182;2023-03-14T02:25:51;9.70;99.90
37478;DHT22;23334;54.316;10.182;2023-03-14T02:28:50;9.90;99.90
37478;DHT22;23334;54.316;10.182;2023-03-14T02:31:48;10.10;99.90
37478;DHT22;23334;54.316;10.182;2023-03-14T02:37:43;9.70;99.90
37478;DHT22;23334;54.316;10.182;2023-03-14T02:40:53;9.70;99.90
37478;DHT22;23334;54.316;10.182;2023-03-14T02:43:45;9.50;99.90
37478;DHT22;23334;54.316;10.182;2023-03-14T02:46:48;9.60;99.90
37478;DHT22;23334;54.316;10.182;2023-03-14T02:49:21;9.50;99.90
37478;DHT22;23334;54.316;10.182;2023-03-14T02:51:53;9.50;99.90
37478;DHT22;23334;54.316;10.182;2023-03-14T02:54:43;9.70;99.90
37478;DHT22;23334;54.316;10.182;2023-03-14T02:57:17;9.60;99.90
37478;DHT22;23334;54.316;10.182;2023-03-14T02:59:44;9.70;99.90
37478;DHT22;23334;54.316;10.182;2023-03-14T03:02:10;9.60;99.90
37478;DHT22;23334;54.316;10.182;2023-03-14T03:04:50;9.40;99.90
37478;DHT22;23334;54.316;10.182;2023-03-14T03:07:50;9.60;99.90
37478;DHT22;23334;54.316;10.182;2023-03-14T03:10:20;9.40;99.90
37478;DHT22;23334;54.316;10.182;2023-03-14T03:12:48;9.60;99.90
37478;DHT22;23334;54.316;10.182;2023-03-14T03:15:22;9.40;99.90
37478;DHT22;23334;54.316;10.182;2023-03-14T03:20:35;9.50;99.90
37478;DHT22;23334;54.316;10.182;2023-03-14T03:23:17;9.50;99.90
37478;DHT22;23334;54.316;10.182;2023-03-14T03:25:50;9.60;99.90
37478;DHT22;23334;54.316;10.182;2023-03-14T03:28:23;9.80;99.90
37478;DHT22;23334;54.316;10.182;2023-03-14T03:31:21;9.80;99.90
37478;DHT22;23334;54.316;10.182;2023-03-14T03:34:00;9.80;99.90
37478;DHT22;23334;54.316;10.182;2023-03-14T03:36:51;9.90;99.90
37478;DHT22;23334;54.316;10.182;2023-03-14T03:39:30;9.50;99.90
37478;DHT22;23334;54.316;10.182;2023-03-14T03:42:00;9.90;99.90
37478;DHT22;23334;54.316;10.182;2023-03-14T03:44:47;10.00;99.90
37478;DHT22;23334;54.316;10.182;2023-03-14T03:47:34;10.10;99.90
37478;DHT22;23334;54.316;10.182;2023-03-14T03:50:05;9.80;99.90
37478;DHT22;23334;54.316;10.182;2023-03-14T03:52:38;10.10;99.90
37478;DHT22;23334;54.316;10.182;2023-03-14T03:55:25;10.20;99.90
37478;DHT22;23334;54.316;10.182;2023-03-14T03:58:06;10.20;99.90
37478;DHT22;23334;54.316;10.182;2023-03-14T04:00:32;10.30;99.90
37478;DHT22;23334;54.316;10.182;2023-03-14T04:02:58;10.30;99.90
37478;DHT22;23334;54.316;10.182;2023-03-14T04:07:50;10.20;99.90
37478;DHT22;23334;54.316;10.182;2023-03-14T04:15:08;10.10;99.90
37478;DHT22;23334;54.316;10.182;2023-03-14T04:19:59;10.50;99.90
37478;DHT22;23334;54.316;10.182;2023-03-14T04:22:25;10.00;99.90
37478;DHT22;23334;54.316;10.182;2023-03-14T04:24:50;9.90;99.90
37478;DHT22;23334;54.316;10.182;2023-03-14T04:27:16;9.90;99.90
37478;DHT22;23334;54.316;10.182;2023-03-14T04:29:42;9.90;99.90
37478;DHT22;23334;54.316;10.182;2023-03-14T04:34:35;9.80;99.90
37478;DHT22;23334;54.316;10.182;2023-03-14T04:39:27;9.80;99.90
37478;DHT22;23334;54.316;10.182;2023-03-14T04:41:52;9.70;99.90
37478;DHT22;23334;54.316;10.182;2023-03-14T04:44:18;9.70;99.90
37478;DHT22;23334;54.316;10.182;2023-03-14T04:46:43;9.70;99.90
37478;DHT22;23334;54.316;10.182;2023-03-14T04:49:09;9.60;99.90
37478;DHT22;23334;54.316;10.182;2023-03-14T04:51:34;9.60;99.90
37478;DHT22;23334;54.316;10.182;2023-03-14T04:54:00;9.60;99.90
37478;DHT22;23334;54.316;10.182;2023-03-14T04:56:25;9.50;99.90
37478;DHT22;23334;54.316;10.182;2023-03-14T04:58:51;9.50;99.90
37478;DHT22;23334;54.316;10.182;2023-03-14T05:01:17;9.50;99.90
37478;DHT22;23334;54.316;10.182;2023-03-14T05:03:43;9.50;99.90
37478;DHT22;23334;54.316;10.182;2023-03-14T05:06:08;9.40;99.90
37478;DHT22;23334;54.316;10.182;2023-03-14T05:08:34;9.40;99.90
37478;DHT22;23334;54.316;10.182;2023-03-14T05:10:59;9.30;99.90
37478;DHT22;23334;54.316;10.182;2023-03-14T05:13:25;9.30;99.90
37478;DHT22;23334;54.316;10.182;2023-03-14T05:15:51;9.30;99.90
37478;DHT22;23334;54.316;10.182;2023-03-14T05:18:17;9.60;99.90
37478;DHT22;23334;54.316;10.182;2023-03-14T05:20:42;9.30;99.90
37478;DHT22;23334;54.316;10.182;2023-03-14T05:23:09;9.10;99.90
37478;DHT22;23334;54.316;10.182;2023-03-14T05:25:34;9.20;99.90
37478;DHT22;23334;54.316;10.182;2023-03-14T05:28:00;9.10;99.90
37478;DHT22;23334;54.316;10.182;2023-03-14T05:30:25;9.10;99.90
37478;DHT22;23334;54.316;10.182;2023-03-14T05:32:53;9.00;99.90
37478;DHT22;23334;54.316;10.182;2023-03-14T05:35:19;9.10;99.90
37478;DHT22;23334;54.316;10.182;2023-03-14T05:37:44;8.90;99.90
37478;DHT22;23334;54.316;10.182;2023-03-14T05:40:10;8.90;99.90
37478;DHT22;23334;54.316;10.182;2023-03-14T05:42:36;8.60;99.90
37478;DHT22;23334;54.316;10.182;2023-03-14T05:45:02;8.80;99.90
37478;DHT22;23334;54.316;10.182;2023-03-14T05:47:28;8.70;99.90
37478;DHT22;23334;54.316;10.182;2023-03-14T05:49:53;8.70;99.90
37478;DHT22;23334;54.316;10.182;2023-03-14T05:52:19;8.70;99.90
37478;DHT22;23334;54.316;10.182;2023-03-14T05:54:44;8.50;99.90
37478;DHT22;23334;54.316;10.182;2023-03-14T05:57:09;8.50;99.90
37478;DHT22;23334;54.316;10.182;2023-03-14T05:59:35;8.50;99.90
37478;DHT22;23334;54.316;10.182;2023-03-14T06:02:01;8.40;99.90
37478;DHT22;23334;54.316;10.182;2023-03-14T06:04:28;8.40;99.90
37478;DHT22;23334;54.316;10.182;2023-03-14T06:06:53;8.30;99.90
37478;DHT22;23334;54.316;10.182;2023-03-14T06:09:19;8.30;99.90
37478;DHT22;23334;54.316;10.182;2023-03-14T06:11:47;8.30;99.90
37478;DHT22;23334;54.316;10.182;2023-03-14T06:14:12;8.30;99.90
37478;DHT22;23334;54.316;10.182;2023-03-14T06:16:38;8.30;99.90
37478;DHT22;23334;54.316;10.182;2023-03-14T06:19:03;8.30;99.90
37478;DHT22;23334;54.316;10.182;2023-03-14T06:21:29;8.40;99.90
37478;DHT22;23334;54.316;10.182;2023-03-14T06:23:55;8.40;99.90
37478;DHT22;23334;54.316;10.182;2023-03-14T06:26:20;8.60;99.90
37478;DHT22;23334;54.316;10.182;2023-03-14T06:28:47;8.70;99.90
37478;DHT22;23334;54.316;10.182;2023-03-14T06:33:38;9.20;99.90
37478;DHT22;23334;54.316;10.182;2023-03-14T06:36:04;9.20;99.90
37478;DHT22;23334;54.316;10.182;2023-03-14T06:38:31;9.60;99.90
37478;DHT22;23334;54.316;10.182;2023-03-14T06:40:56;9.70;99.90
37478;DHT22;23334;54.316;10.182;2023-03-14T06:43:21;9.90;99.90
37478;DHT22;23334;54.316;10.182;2023-03-14T06:48:13;10.00;99.90
37478;DHT22;23334;54.316;10.182;2023-03-14T06:55:30;9.80;99.90
37478;DHT22;23334;54.316;10.182;2023-03-14T06:57:56;9.70;99.90
37478;DHT22;23334;54.316;10.182;2023-03-14T07:00:22;9.70;99.90
37478;DHT22;23334;54.316;10.182;2023-03-14T07:07:39;9.90;99.90
37478;DHT22;23334;54.316;10.182;2023-03-14T07:10:05;9.70;99.90
37478;DHT22;23334;54.316;10.182;2023-03-14T07:12:32;9.70;99.90
37478;DHT22;23334;54.316;10.182;2023-03-14T07:14:57;9.70;99.90
37478;DHT22;23334;54.316;10.182;2023-03-14T07:17:23;9.90;99.90
37478;DHT22;23334;54.316;10.182;2023-03-14T07:19:48;9.80;99.90
37478;DHT22;23334;54.316;10.182;2023-03-14T07:22:13;9.80;99.90
37478;DHT22;23334;54.316;10.182;2023-03-14T07:24:39;9.80;99.90
37478;DHT22;23334;54.316;10.182;2023-03-14T07:27:15;9.80;99.90
37478;DHT22;23334;54.316;10.182;2023-03-14T07:29:41;9.60;99.90
37478;DHT22;23334;54.316;10.182;2023-03-14T07:32:06;9.90;99.90
37478;DHT22;23334;54.316;10.182;2023-03-14T07:34:33;9.90;99.90
37478;DHT22;23334;54.316;10.182;2023-03-14T07:36:58;9.80;99.90
37478;DHT22;23334;54.316;10.182;2023-03-14T07:39:24;10.10;99.90
37478;DHT22;23334;54.316;10.182;2023-03-14T07:41:50;11.30;99.90
37478;DHT22;23334;54.316;10.182;2023-03-14T07:44:15;10.10;99.90
37478;DHT22;23334;54.316;10.182;2023-03-14T07:46:41;10.10;99.90
37478;DHT22;23334;54.316;10.182;2023-03-14T07:49:06;10.20;99.90
37478;DHT22;23334;54.316;10.182;2023-03-14T07:51:31;10.40;99.90
37478;DHT22;23334;54.316;10.182;2023-03-14T07:53:57;10.40;99.90
37478;DHT22;23334;54.316;10.182;2023-03-14T07:56:22;10.40;99.90
37478;DHT22;23334;54.316;10.182;2023-03-14T07:58:48;11.10;99.90
37478;DHT22;23334;54.316;10.182;2023-03-14T08:01:14;10.20;99.90
37478;DHT22;23334;54.316;10.182;2023-03-14T08:03:39;10.10;99.90
37478;DHT22;23334;54.316;10.182;2023-03-14T08:06:05;10.20;99.90
37478;DHT22;23334;54.316;10.182;2023-03-14T08:11:02;9.90;99.90
37478;DHT22;23334;54.316;10.182;2023-03-14T08:13:28;9.80;99.90
37478;DHT22;23334;54.316;10.182;2023-03-14T08:15:55;9.70;99.90
37478;DHT22;23334;54.316;10.182;2023-03-14T08:18:20;10.00;99.90
37478;DHT22;23334;54.316;10.182;2023-03-14T08:20:46;10.10;99.90
37478;DHT22;23334;54.316;10.182;2023-03-14T08:23:11;10.20;99.90
37478;DHT22;23334;54.316;10.182;2023-03-14T08:25:37;10.20;99.90
37478;DHT22;23334;54.316;10.182;2023-03-14T08:28:03;10.20;99.90
37478;DHT22;23334;54.316;10.182;2023-03-14T08:30:29;10.20;99.90
37478;DHT22;23334;54.316;10.182;2023-03-14T08:32:57;10.50;99.90
37478;DHT22;23334;54.316;10.182;2023-03-14T08:35:24;10.10;99.90
37478;DHT22;23334;54.316;10.182;2023-03-14T08:37:50;10.00;99.90
37478;DHT22;23334;54.316;10.182;2023-03-14T08:40:17;10.00;99.90
37478;DHT22;23334;54.316;10.182;2023-03-14T08:42:43;9.90;99.90
37478;DHT22;23334;54.316;10.182;2023-03-14T08:45:11;9.80;99.90
37478;DHT22;23334;54.316;10.182;2023-03-14T08:47:37;9.70;99.90
37478;DHT22;23334;54.316;10.182;2023-03-14T08:50:04;8.70;99.90
37478;DHT22;23334;54.316;10.182;2023-03-14T08:52:31;10.40;99.90
37478;DHT22;23334;54.316;10.182;2023-03-14T08:54:56;9.70;99.90
37478;DHT22;23334;54.316;10.182;2023-03-14T08:57:22;9.60;99.90
37478;DHT22;23334;54.316;10.182;2023-03-14T08:59:55;9.60;99.90
37478;DHT22;23334;54.316;10.182;2023-03-14T09:02:21;9.50;99.90
37478;DHT22;23334;54.316;10.182;2023-03-14T09:04:47;8.30;99.90
37478;DHT22;23334;54.316;10.182;2023-03-14T09:07:12;8.10;99.90
37478;DHT22;23334;54.316;10.182;2023-03-14T09:09:38;7.70;99.90
37478;DHT22;23334;54.316;10.182;2023-03-14T09:12:04;7.40;99.90
37478;DHT22;23334;54.316;10.182;2023-03-14T09:14:30;7.00;99.90
37478;DHT22;23334;54.316;10.182;2023-03-14T09:16:56;6.50;99.90
37478;DHT22;23334;54.316;10.182;2023-03-14T09:19:21;6.10;99.90
37478;DHT22;23334;54.316;10.182;2023-03-14T09:21:47;5.90;99.90
37478;DHT22;23334;54.316;10.182;2023-03-14T09:24:12;5.50;99.90
37478;DHT22;23334;54.316;10.182;2023-03-14T09:26:38;5.40;99.90
37478;DHT22;23334;54.316;10.182;2023-03-14T09:31:31;3.20;99.90
37478;DHT22;23334;54.316;10.182;2023-03-14T09:34:12;4.90;99.90
37478;DHT22;23334;54.316;10.182;2023-03-14T09:36:39;5.00;99.90
37478;DHT22;23334;54.316;10.182;2023-03-14T09:39:05;4.80;99.90
37478;DHT22;23334;54.316;10.182;2023-03-14T09:41:37;4.60;99.90
37478;DHT22;23334;54.316;10.182;2023-03-14T09:44:08;4.50;99.90
37478;DHT22;23334;54.316;10.182;2023-03-14T09:46:38;4.30;99.90
37478;DHT22;23334;54.316;10.182;2023-03-14T09:49:25;3.90;99.90
37478;DHT22;23334;54.316;10.182;2023-03-14T09:54:49;4.20;99.90
37478;DHT22;23334;54.316;10.182;2023-03-14T09:57:23;4.40;99.90
37478;DHT22;23334;54.316;10.182;2023-03-14T09:59:51;4.10;99.90
37478;DHT22;23334;54.316;10.182;2023-03-14T10:02:28;4.10;99.90
37478;DHT22;23334;54.316;10.182;2023-03-14T10:04:56;4.00;99.90
37478;DHT22;23334;54.316;10.182;2023-03-14T10:07:31;3.90;99.90
37478;DHT22;23334;54.316;10.182;2023-03-14T10:09:57;3.90;99.90
37478;DHT22;23334;54.316;10.182;2023-03-14T10:12:36;4.00;99.90
37478;DHT22;23334;54.316;10.182;2023-03-14T10:15:08;4.10;99.90
37478;DHT22;23334;54.316;10.182;2023-03-14T10:17:42;4.10;99.90
37478;DHT22;23334;54.316;10.182;2023-03-14T10:23:00;4.60;99.90
37478;DHT22;23334;54.316;10.182;2023-03-14T10:25:28;4.40;99.90
37478;DHT22;23334;54.316;10.182;2023-03-14T10:27:53;4.50;99.90
37478;DHT22;23334;54.316;10.182;2023-03-14T10:30:40;4.60;99.90
37478;DHT22;23334;54.316;10.182;2023-03-14T10:38:23;4.70;99.90
37478;DHT22;23334;54.316;10.182;2023-03-14T10:40:50;4.80;99.90
37478;DHT22;23334;54.316;10.182;2023-03-14T10:43:22;4.90;99.90
37478;DHT22;23334;54.316;10.182;2023-03-14T10:46:02;4.90;99.90
37478;DHT22;23334;54.316;10.182;2023-03-14T10:48:38;5.10;99.90
37478;DHT22;23334;54.316;10.182;2023-03-14T10:51:24;5.10;99.90
37478;DHT22;23334;54.316;10.182;2023-03-14T10:54:14;5.00;99.90
37478;DHT22;23334;54.316;10.182;2023-03-14T10:56:45;5.40;99.90
37478;DHT22;23334;54.316;10.182;2023-03-14T10:59:20;5.50;99.90
37478;DHT22;23334;54.316;10.182;2023-03-14T11:01:55;5.70;99.90
37478;DHT22;23334;54.316;10.182;2023-03-14T11:13:01;7.30;99.90
37478;DHT22;23334;54.316;10.182;2023-03-14T11:15:43;6.80;99.90
37478;DHT22;23334;54.316;10.182;2023-03-14T11:21:29;7.60;99.90
37478;DHT22;23334;54.316;10.182;2023-03-14T11:27:12;7.20;99.90
37478;DHT22;23334;54.316;10.182;2023-03-14T11:32:14;7.40;99.90
37478;DHT22;23334;54.316;10.182;2023-03-14T11:34:51;7.30;99.90
37478;DHT22;23334;54.316;10.182;2023-03-14T11:37:34;7.60;99.90
37478;DHT22;23334;54.316;10.182;2023-03-14T11:42:27;7.80;99.90
37478;DHT22;23334;54.316;10.182;2023-03-14T11:44:55;7.70;99.90
37478;DHT22;23334;54.316;10.182;2023-03-14T11:47:34;7.70;99.90
37478;DHT22;23334;54.316;10.182;2023-03-14T11:50:14;8.20;99.90
37478;DHT22;23334;54.316;10.182;2023-03-14T11:52:51;8.40;99.90
37478;DHT22;23334;54.316;10.182;2023-03-14T11:55:28;7.90;99.90
37478;DHT22;23334;54.316;10.182;2023-03-14T11:58:01;7.90;99.90
37478;DHT22;23334;54.316;10.182;2023-03-14T12:00:29;7.60;99.90
37478;DHT22;23334;54.316;10.182;2023-03-14T12:06:21;7.70;99.90
37478;DHT22;23334;54.316;10.182;2023-03-14T12:11:22;7.30;99.90
37478;DHT22;23334;54.316;10.182;2023-03-14T12:13:51;7.40;99.90
37478;DHT22;23334;54.316;10.182;2023-03-14T12:18:50;7.20;99.90
37478;DHT22;23334;54.316;10.182;2023-03-14T12:21:16;6.80;99.90
37478;DHT22;23334;54.316;10.182;2023-03-14T12:23:52;6.80;99.90
37478;DHT22;23334;54.316;10.182;2023-03-14T12:26:21;6.90;99.90
37478;DHT22;23334;54.316;10.182;2023-03-14T12:29:09;6.30;99.90
37478;DHT22;23334;54.316;10.182;2023-03-14T12:31:38;6.40;99.90
37478;DHT22;23334;54.316;10.182;2023-03-14T12:42:11;5.60;99.90
37478;DHT22;23334;54.316;10.182;2023-03-14T12:44:50;5.40;99.90
37478;DHT22;23334;54.316;10.182;2023-03-14T12:49:42;5.40;99.90
37478;DHT22;23334;54.316;10.182;2023-03-14T12:52:15;5.40;99.90
37478;DHT22;23334;54.316;10.182;2023-03-14T12:55:06;5.30;99.90
37478;DHT22;23334;54.316;10.182;2023-03-14T12:57:42;5.30;99.90
37478;DHT22;23334;54.316;10.182;2023-03-14T13:00:29;5.40;99.90
37478;DHT22;23334;54.316;10.182;2023-03-14T13:03:17;5.70;99.90
37478;DHT22;23334;54.316;10.182;2023-03-14T13:05:55;6.00;99.90
37478;DHT22;23334;54.316;10.182;2023-03-14T13:10:59;6.40;99.90
37478;DHT22;23334;54.316;10.182;2023-03-14T13:13:27;6.60;99.90
37478;DHT22;23334;54.316;10.182;2023-03-14T13:15:59;6.80;99.90
37478;DHT22;23334;54.316;10.182;2023-03-14T13:18:40;6.80;99.90
37478;DHT22;23334;54.316;10.182;2023-03-14T13:21:24;7.00;99.90
37478;DHT22;23334;54.316;10.182;2023-03-14T13:24:04;6.90;99.90
37478;DHT22;23334;54.316;10.182;2023-03-14T13:26:37;6.70;99.90
37478;DHT22;23334;54.316;10.182;2023-03-14T13:29:31;6.90;99.90
37478;DHT22;23334;54.316;10.182;2023-03-14T13:32:00;6.80;99.90
37478;DHT22;23334;54.316;10.182;2023-03-14T13:34:30;7.20;99.90
37478;DHT22;23334;54.316;10.182;2023-03-14T13:36:56;7.30;99.90
37478;DHT22;23334;54.316;10.182;2023-03-14T13:39:24;7.40;99.90
37478;DHT22;23334;54.316;10.182;2023-03-14T13:41:52;7.50;99.90
37478;DHT22;23334;54.316;10.182;2023-03-14T13:44:38;7.30;99.90
37478;DHT22;23334;54.316;10.182;2023-03-14T13:47:10;7.30;99.90
37478;DHT22;23334;54.316;10.182;2023-03-14T13:49:37;7.10;99.90
37478;DHT22;23334;54.316;10.182;2023-03-14T13:52:03;7.20;99.90
37478;DHT22;23334;54.316;10.182;2023-03-14T13:54:31;7.30;99.90
37478;DHT22;23334;54.316;10.182;2023-03-14T13:57:06;6.20;99.90
37478;DHT22;23334;54.316;10.182;2023-03-14T13:59:34;8.90;99.90
37478;DHT22;23334;54.316;10.182;2023-03-14T14:02:03;7.00;99.90
37478;DHT22;23334;54.316;10.182;2023-03-14T14:04:33;6.80;99.90
37478;DHT22;23334;54.316;10.182;2023-03-14T14:07:24;6.70;99.90
37478;DHT22;23334;54.316;10.182;2023-03-14T14:09:51;6.80;99.90
37478;DHT22;23334;54.316;10.182;2023-03-14T14:12:33;6.70;99.90
37478;DHT22;23334;54.316;10.182;2023-03-14T14:17:38;6.60;99.90
37478;DHT22;23334;54.316;10.182;2023-03-14T14:20:08;6.60;99.90
37478;DHT22;23334;54.316;10.182;2023-03-14T14:22:36;6.80;99.90
37478;DHT22;23334;54.316;10.182;2023-03-14T14:25:01;6.30;99.90
37478;DHT22;23334;54.316;10.182;2023-03-14T14:27:32;6.80;99.90
37478;DHT22;23334;54.316;10.182;2023-03-14T14:32:43;6.80;99.90
37478;DHT22;23334;54.316;10.182;2023-03-14T14:35:21;6.60;99.90
37478;DHT22;23334;54.316;10.182;2023-03-14T14:37:47;7.00;99.90
37478;DHT22;23334;54.316;10.182;2023-03-14T14:40:20;7.30;99.90
37478;DHT22;23334;54.316;10.182;2023-03-14T14:42:46;7.50;99.90
37478;DHT22;23334;54.316;10.182;2023-03-14T14:45:20;7.00;99.90
37478;DHT22;23334;54.316;10.182;2023-03-14T14:47:58;7.60;99.90
37478;DHT22;23334;54.316;10.182;2023-03-14T14:53:13;7.70;99.90
37478;DHT22;23334;54.316;10.182;2023-03-14T14:55:45;7.40;99.90
37478;DHT22;23334;54.316;10.182;2023-03-14T14:58:20;7.30;99.90
37478;DHT22;23334;54.316;10.182;2023-03-14T15:01:04;7.10;99.90
37478;DHT22;23334;54.316;10.182;2023-03-14T15:03:32;6.80;99.90
37478;DHT22;23334;54.316;10.182;2023-03-14T15:05:58;7.20;99.90
37478;DHT22;23334;54.316;10.182;2023-03-14T15:08:25;8.40;99.90
37478;DHT22;23334;54.316;10.182;2023-03-14T15:10:53;7.00;99.90
37478;DHT22;23334;54.316;10.182;2023-03-14T15:13:19;7.00;99.90
37478;DHT22;23334;54.316;10.182;2023-03-14T15:15:45;6.70;99.90
37478;DHT22;23334;54.316;10.182;2023-03-14T15:18:16;6.60;99.90
37478;DHT22;23334;54.316;10.182;2023-03-14T15:20:43;6.50;99.90
37478;DHT22;23334;54.316;10.182;2023-03-14T15:23:14;6.40;99.90
37478;DHT22;23334;54.316;10.182;2023-03-14T15:25:40;6.00;99.90
37478;DHT22;23334;54.316;10.182;2023-03-14T15:30:37;6.20;99.90
37478;DHT22;23334;54.316;10.182;2023-03-14T15:33:05;6.70;99.90
37478;DHT22;23334;54.316;10.182;2023-03-14T15:38:04;6.30;99.90
37478;DHT22;23334;54.316;10.182;2023-03-14T15:40:33;6.30;99.90
37478;DHT22;23334;54.316;10.182;2023-03-14T15:43:01;6.30;99.90
37478;DHT22;23334;54.316;10.182;2023-03-14T15:45:27;6.30;99.90
37478;DHT22;23334;54.316;10.182;2023-03-14T15:47:53;6.30;99.90
37478;DHT22;23334;54.316;10.182;2023-03-14T15:50:21;6.20;99.90
37478;DHT22;23334;54.316;10.182;2023-03-14T15:52:52;6.30;99.90
37478;DHT22;23334;54.316;10.182;2023-03-14T15:55:18;6.10;99.90
37478;DHT22;23334;54.316;10.182;2023-03-14T15:57:44;6.10;99.90
37478;DHT22;23334;54.316;10.182;2023-03-14T16:00:17;6.20;99.90
37478;DHT22;23334;54.316;10.182;2023-03-14T16:02:44;6.20;99.90
37478;DHT22;23334;54.316;10.182;2023-03-14T16:05:11;6.20;99.90
37478;DHT22;23334;54.316;10.182;2023-03-14T16:07:37;6.10;99.90
37478;DHT22;23334;54.316;10.182;2023-03-14T16:10:03;6.00;99.90
37478;DHT22;23334;54.316;10.182;2023-03-14T16:12:28;5.90;99.90
37478;DHT22;23334;54.316;10.182;2023-03-14T16:14:55;5.70;99.90
37478;DHT22;23334;54.316;10.182;2023-03-14T16:17:21;5.60;99.90
37478;DHT22;23334;54.316;10.182;2023-03-14T16:19:46;5.50;99.90
37478;DHT22;23334;54.316;10.182;2023-03-14T16:22:13;5.40;99.90
37478;DHT22;23334;54.316;10.182;2023-03-14T16:27:06;5.30;99.90
37478;DHT22;23334;54.316;10.182;2023-03-14T16:29:32;5.20;99.90
37478;DHT22;23334;54.316;10.182;2023-03-14T16:31:57;5.10;99.90
37478;DHT22;23334;54.316;10.182;2023-03-14T16:36:55;4.90;99.90
37478;DHT22;23334;54.316;10.182;2023-03-14T16:39:22;4.90;99.90
37478;DHT22;23334;54.316;10.182;2023-03-14T16:41:47;5.10;99.90
37478;DHT22;23334;54.316;10.182;2023-03-14T16:44:19;5.10;99.90
37478;DHT22;23334;54.316;10.182;2023-03-14T16:46:47;4.60;99.90
37478;DHT22;23334;54.316;10.182;2023-03-14T16:49:55;4.50;99.90
37478;DHT22;23334;54.316;10.182;2023-03-14T16:52:21;4.50;99.90
37478;DHT22;23334;54.316;10.182;2023-03-14T16:54:46;4.40;99.90
37478;DHT22;23334;54.316;10.182;2023-03-14T16:57:12;4.40;99.90
37478;DHT22;23334;54.316;10.182;2023-03-14T16:59:37;4.30;99.90
37478;DHT22;23334;54.316;10.182;2023-03-14T17:04:29;4.30;99.90
37478;DHT22;23334;54.316;10.182;2023-03-14T17:06:55;4.30;99.90
37478;DHT22;23334;54.316;10.182;2023-03-14T17:09:20;4.20;99.90
37478;DHT22;23334;54.316;10.182;2023-03-14T17:11:46;4.20;99.90
37478;DHT22;23334;54.316;10.182;2023-03-14T17:14:11;4.20;99.90
37478;DHT22;23334;54.316;10.182;2023-03-14T17:19:03;4.10;99.90
37478;DHT22;23334;54.316;10.182;2023-03-14T17:23:54;4.00;99.90
37478;DHT22;23334;54.316;10.182;2023-03-14T17:26:20;4.00;99.90
37478;DHT22;23334;54.316;10.182;2023-03-14T17:31:16;3.80;99.90
37478;DHT22;23334;54.316;10.182;2023-03-14T17:33:43;3.70;99.90
37478;DHT22;23334;54.316;10.182;2023-03-14T17:36:09;3.80;99.90
37478;DHT22;23334;54.316;10.182;2023-03-14T17:38:37;3.60;99.90
37478;DHT22;23334;54.316;10.182;2023-03-14T17:41:07;3.70;99.90
37478;DHT22;23334;54.316;10.182;2023-03-14T17:43:34;3.60;99.90
37478;DHT22;23334;54.316;10.182;2023-03-14T17:46:01;3.70;99.90
37478;DHT22;23334;54.316;10.182;2023-03-14T17:48:27;3.60;99.90
37478;DHT22;23334;54.316;10.182;2023-03-14T17:50:52;3.20;99.90
37478;DHT22;23334;54.316;10.182;2023-03-14T17:53:18;3.70;99.90
37478;DHT22;23334;54.316;10.182;2023-03-14T17:55:43;3.80;99.90
37478;DHT22;23334;54.316;10.182;2023-03-14T17:58:29;3.90;99.90
37478;DHT22;23334;54.316;10.182;2023-03-14T18:00:55;4.10;99.90
37478;DHT22;23334;54.316;10.182;2023-03-14T18:03:23;4.00;99.90
37478;DHT22;23334;54.316;10.182;2023-03-14T18:05:51;4.10;99.90
37478;DHT22;23334;54.316;10.182;2023-03-14T18:08:22;3.90;99.90
37478;DHT22;23334;54.316;10.182;2023-03-14T18:11:00;3.70;99.90
37478;DHT22;23334;54.316;10.182;2023-03-14T18:13:27;3.70;99.90